sensor_id;sensor_type;location;lat;lon;timestamp;pressure;altitude;pressure_sealevel;temperature;humidity
55517;BME280;41724;51.176;-0.708;2023-11-19T00:01:50;100408.07;;;11.27;95.50
55517;BME280;41724;51.176;-0.708;2023-11-19T00:04:17;100403.52;;;11.72;92.91
55517;BME280;41724;51.176;-0.708;2023-11-19T00:06:44;100411.68;;;11.07;94.77
55517;BME280;41724;51.176;-0.708;2023-11-19T00:09:11;100407.04;;;11.53;94.50
55517;BME280;41724;51.176;-0.708;2023-11-19T00:11:38;100417.23;;;10.88;96.85
55517;BME280;41724;51.176;-0.708;2023-11-19T00:14:06;100412.13;;;11.31;95.75
55517;BME280;41724;51.176;-0.708;2023-11-19T00:16:33;100413.23;;;10.63;100.00
55517;BME280;41724;51.176;-0.708;2023-11-19T00:19:00;100406.19;;;10.88;97.72
55517;BME280;41724;51.176;-0.708;2023-11-19T00:21:27;100407.45;;;10.50;99.89
55517;BME280;41724;51.176;-0.708;2023-11-19T00:23:54;100410.38;;;10.60;100.00
55517;BME280;41724;51.176;-0.708;2023-11-19T00:26:23;100402.09;;;10.80;99.15
55517;BME280;41724;51.176;-0.708;2023-11-19T00:28:50;100402.24;;;10.71;99.07
55517;BME280;41724;51.176;-0.708;2023-11-19T00:31:18;100418.63;;;9.65;100.00
55517;BME280;41724;51.176;-0.708;2023-11-19T00:33:47;100400.18;;;10.78;99.48
55517;BME280;41724;51.176;-0.708;2023-11-19T00:36:14;100404.23;;;10.09;100.00
55517;BME280;41724;51.176;-0.708;2023-11-19T00:38:41;100407.12;;;10.57;97.90
55517;BME280;41724;51.176;-0.708;2023-11-19T00:41:08;100410.23;;;10.87;97.50
55517;BME280;41724;51.176;-0.708;2023-11-19T00:43:35;100410.03;;;10.14;100.00
55517;BME280;41724;51.176;-0.708;2023-11-19T00:46:02;100405.93;;;10.11;100.00
55517;BME280;41724;51.176;-0.708;2023-11-19T00:48:29;100414.09;;;10.75;100.00
55517;BME280;41724;51.176;-0.708;2023-11-19T00:50:56;100413.19;;;10.58;98.93
55517;BME280;41724;51.176;-0.708;2023-11-19T00:53:24;100412.79;;;10.37;100.00
55517;BME280;41724;51.176;-0.708;2023-11-19T00:55:50;100416.41;;;10.20;100.00
55517;BME280;41724;51.176;-0.708;2023-11-19T00:58:19;100417.78;;;9.62;100.00
55517;BME280;41724;51.176;-0.708;2023-11-19T01:00:46;100418.46;;;9.92;100.00
55517;BME280;41724;51.176;-0.708;2023-11-19T01:03:13;100415.29;;;10.33;100.00
55517;BME280;41724;51.176;-0.708;2023-11-19T01:05:40;100402.76;;;10.86;99.31
55517;BME280;41724;51.176;-0.708;2023-11-19T01:08:09;100397.42;;;10.79;97.85
55517;BME280;41724;51.176;-0.708;2023-11-19T01:10:37;100393.38;;;10.50;99.57
55517;BME280;41724;51.176;-0.708;2023-11-19T01:13:04;100392.43;;;10.49;99.40
55517;BME280;41724;51.176;-0.708;2023-11-19T01:15:31;100383.53;;;10.55;100.00
55517;BME280;41724;51.176;-0.708;2023-11-19T01:17:58;100395.70;;;9.86;100.00
55517;BME280;41724;51.176;-0.708;2023-11-19T01:20:25;100392.99;;;9.99;100.00
55517;BME280;41724;51.176;-0.708;2023-11-19T01:22:53;100411.04;;;9.86;100.00
55517;BME280;41724;51.176;-0.708;2023-11-19T01:25:20;100400.44;;;9.64;100.00
55517;BME280;41724;51.176;-0.708;2023-11-19T01:27:47;100405.33;;;9.93;100.00
55517;BME280;41724;51.176;-0.708;2023-11-19T01:30:14;100400.95;;;10.17;100.00
55517;BME280;41724;51.176;-0.708;2023-11-19T01:32:41;100390.45;;;10.12;100.00
55517;BME280;41724;51.176;-0.708;2023-11-19T01:35:08;100391.26;;;9.73;100.00
55517;BME280;41724;51.176;-0.708;2023-11-19T01:37:35;100380.07;;;10.15;100.00
55517;BME280;41724;51.176;-0.708;2023-11-19T01:40:03;100378.08;;;10.25;99.71
55517;BME280;41724;51.176;-0.708;2023-11-19T01:42:33;100371.47;;;9.81;100.00
55517;BME280;41724;51.176;-0.708;2023-11-19T01:45:03;100366.54;;;10.76;99.65
55517;BME280;41724;51.176;-0.708;2023-11-19T01:47:31;100366.01;;;9.85;100.00
55517;BME280;41724;51.176;-0.708;2023-11-19T01:49:59;100381.97;;;10.38;100.00
55517;BME280;41724;51.176;-0.708;2023-11-19T01:52:27;100369.40;;;10.39;98.38
55517;BME280;41724;51.176;-0.708;2023-11-19T01:54:54;100368.73;;;10.58;99.99
55517;BME280;41724;51.176;-0.708;2023-11-19T01:57:23;100367.97;;;10.51;100.00
55517;BME280;41724;51.176;-0.708;2023-11-19T01:59:51;100364.01;;;10.44;99.79
55517;BME280;41724;51.176;-0.708;2023-11-19T02:02:19;100367.39;;;10.19;100.00
55517;BME280;41724;51.176;-0.708;2023-11-19T02:04:47;100370.15;;;10.13;100.00
55517;BME280;41724;51.176;-0.708;2023-11-19T02:07:14;100355.95;;;9.98;100.00
55517;BME280;41724;51.176;-0.708;2023-11-19T02:09:42;100365.29;;;9.50;100.00
55517;BME280;41724;51.176;-0.708;2023-11-19T02:12:09;100349.44;;;9.78;100.00
55517;BME280;41724;51.176;-0.708;2023-11-19T02:14:37;100372.02;;;9.69;100.00
55517;BME280;41724;51.176;-0.708;2023-11-19T02:17:05;100354.34;;;9.78;100.00
55517;BME280;41724;51.176;-0.708;2023-11-19T02:19:32;100364.67;;;9.53;100.00
55517;BME280;41724;51.176;-0.708;2023-11-19T02:21:59;100361.12;;;9.93;100.00
55517;BME280;41724;51.176;-0.708;2023-11-19T02:24:28;100354.76;;;9.61;100.00
55517;BME280;41724;51.176;-0.708;2023-11-19T02:27:02;100370.55;;;9.92;100.00
55517;BME280;41724;51.176;-0.708;2023-11-19T02:29:35;100371.90;;;10.41;97.47
55517;BME280;41724;51.176;-0.708;2023-11-19T02:32:03;100377.48;;;9.83;100.00
55517;BME280;41724;51.176;-0.708;2023-11-19T02:34:30;100383.53;;;9.54;100.00
55517;BME280;41724;51.176;-0.708;2023-11-19T02:36:57;100354.90;;;10.17;98.54
55517;BME280;41724;51.176;-0.708;2023-11-19T02:39:24;100351.09;;;9.45;100.00
55517;BME280;41724;51.176;-0.708;2023-11-19T02:41:51;100339.27;;;10.37;98.13
55517;BME280;41724;51.176;-0.708;2023-11-19T02:44:18;100334.62;;;10.62;98.28
55517;BME280;41724;51.176;-0.708;2023-11-19T02:46:45;100346.40;;;10.24;100.00
55517;BME280;41724;51.176;-0.708;2023-11-19T02:49:12;100340.56;;;9.46;100.00
55517;BME280;41724;51.176;-0.708;2023-11-19T02:51:39;100351.40;;;10.11;100.00
55517;BME280;41724;51.176;-0.708;2023-11-19T02:54:06;100340.80;;;9.80;100.00
55517;BME280;41724;51.176;-0.708;2023-11-19T02:56:33;100340.49;;;10.07;100.00
55517;BME280;41724;51.176;-0.708;2023-11-19T02:59:00;100331.10;;;9.75;100.00
55517;BME280;41724;51.176;-0.708;2023-11-19T03:01:27;100334.61;;;10.38;99.40
55517;BME280;41724;51.176;-0.708;2023-11-19T03:03:54;100350.97;;;9.96;100.00
55517;BME280;41724;51.176;-0.708;2023-11-19T03:06:22;100342.34;;;9.63;100.00
55517;BME280;41724;51.176;-0.708;2023-11-19T03:08:49;100341.50;;;9.58;100.00
55517;BME280;41724;51.176;-0.708;2023-11-19T03:11:15;100329.17;;;9.94;100.00
55517;BME280;41724;51.176;-0.708;2023-11-19T03:13:42;100340.35;;;9.96;100.00
55517;BME280;41724;51.176;-0.708;2023-11-19T03:16:09;100317.63;;;9.68;100.00
55517;BME280;41724;51.176;-0.708;2023-11-19T03:18:36;100326.10;;;9.70;100.00
55517;BME280;41724;51.176;-0.708;2023-11-19T03:21:03;100325.26;;;10.03;100.00
55517;BME280;41724;51.176;-0.708;2023-11-19T03:23:31;100327.10;;;10.14;100.00
55517;BME280;41724;51.176;-0.708;2023-11-19T03:25:57;100337.45;;;9.87;100.00
55517;BME280;41724;51.176;-0.708;2023-11-19T03:28:24;100332.62;;;10.59;97.31
55517;BME280;41724;51.176;-0.708;2023-11-19T03:30:51;100332.10;;;10.55;99.49
55517;BME280;41724;51.176;-0.708;2023-11-19T03:33:18;100332.01;;;11.26;94.23
55517;BME280;41724;51.176;-0.708;2023-11-19T03:35:45;100342.64;;;10.74;93.61
55517;BME280;41724;51.176;-0.708;2023-11-19T03:38:12;100347.99;;;10.64;95.13
55517;BME280;41724;51.176;-0.708;2023-11-19T03:40:39;100355.94;;;10.01;96.70
55517;BME280;41724;51.176;-0.708;2023-11-19T03:43:06;100346.65;;;10.10;97.17
55517;BME280;41724;51.176;-0.708;2023-11-19T03:45:33;100345.77;;;10.42;96.29
55517;BME280;41724;51.176;-0.708;2023-11-19T03:48:00;100341.61;;;10.26;96.05
55517;BME280;41724;51.176;-0.708;2023-11-19T03:50:27;100336.45;;;10.43;97.95
55517;BME280;41724;51.176;-0.708;2023-11-19T03:52:54;100364.17;;;10.19;97.30
55517;BME280;41724;51.176;-0.708;2023-11-19T03:55:21;100356.19;;;10.13;96.23
55517;BME280;41724;51.176;-0.708;2023-11-19T03:57:49;100359.44;;;9.68;99.29
55517;BME280;41724;51.176;-0.708;2023-11-19T04:00:16;100350.00;;;9.71;100.00
55517;BME280;41724;51.176;-0.708;2023-11-19T04:02:43;100348.30;;;10.15;98.85
55517;BME280;41724;51.176;-0.708;2023-11-19T04:05:09;100359.46;;;10.27;97.58
55517;BME280;41724;51.176;-0.708;2023-11-19T04:07:36;100345.88;;;9.75;100.00
55517;BME280;41724;51.176;-0.708;2023-11-19T04:10:04;100347.91;;;10.00;99.22
55517;BME280;41724;51.176;-0.708;2023-11-19T04:12:32;100350.53;;;9.86;99.83
55517;BME280;41724;51.176;-0.708;2023-11-19T04:14:59;100334.41;;;10.00;97.19
55517;BME280;41724;51.176;-0.708;2023-11-19T04:17:26;100335.81;;;10.10;97.78
55517;BME280;41724;51.176;-0.708;2023-11-19T04:19:53;100328.86;;;10.11;94.83
55517;BME280;41724;51.176;-0.708;2023-11-19T04:22:19;100332.98;;;10.06;96.86
55517;BME280;41724;51.176;-0.708;2023-11-19T04:24:46;100337.09;;;10.40;95.71
55517;BME280;41724;51.176;-0.708;2023-11-19T04:27:15;100335.57;;;10.82;91.73
55517;BME280;41724;51.176;-0.708;2023-11-19T04:29:42;100339.47;;;10.53;93.53
55517;BME280;41724;51.176;-0.708;2023-11-19T04:32:09;100332.71;;;10.47;91.83
55517;BME280;41724;51.176;-0.708;2023-11-19T04:34:36;100335.35;;;10.56;94.43
55517;BME280;41724;51.176;-0.708;2023-11-19T04:37:03;100337.16;;;10.84;90.32
55517;BME280;41724;51.176;-0.708;2023-11-19T04:39:30;100328.99;;;10.17;94.46
55517;BME280;41724;51.176;-0.708;2023-11-19T04:41:57;100328.39;;;10.81;91.75
55517;BME280;41724;51.176;-0.708;2023-11-19T04:44:24;100339.86;;;10.57;92.68
55517;BME280;41724;51.176;-0.708;2023-11-19T04:46:51;100331.36;;;10.61;92.75
55517;BME280;41724;51.176;-0.708;2023-11-19T04:49:17;100333.84;;;10.53;91.50
55517;BME280;41724;51.176;-0.708;2023-11-19T04:51:45;100341.86;;;10.01;95.46
55517;BME280;41724;51.176;-0.708;2023-11-19T04:54:13;100334.78;;;10.72;92.96
55517;BME280;41724;51.176;-0.708;2023-11-19T04:56:46;100325.51;;;10.42;92.90
55517;BME280;41724;51.176;-0.708;2023-11-19T04:59:14;100332.44;;;10.20;93.51
55517;BME280;41724;51.176;-0.708;2023-11-19T05:01:46;100323.26;;;10.65;91.09
55517;BME280;41724;51.176;-0.708;2023-11-19T05:04:14;100329.50;;;10.67;89.36
55517;BME280;41724;51.176;-0.708;2023-11-19T05:06:41;100335.76;;;11.04;88.27
55517;BME280;41724;51.176;-0.708;2023-11-19T05:09:09;100333.65;;;11.22;87.02
55517;BME280;41724;51.176;-0.708;2023-11-19T05:11:36;100328.36;;;11.97;84.87
55517;BME280;41724;51.176;-0.708;2023-11-19T05:14:03;100320.96;;;10.71;89.46
55517;BME280;41724;51.176;-0.708;2023-11-19T05:16:31;100336.46;;;11.66;85.24
55517;BME280;41724;51.176;-0.708;2023-11-19T05:18:58;100334.42;;;10.87;89.42
55517;BME280;41724;51.176;-0.708;2023-11-19T05:21:24;100333.62;;;11.10;89.15
55517;BME280;41724;51.176;-0.708;2023-11-19T05:23:52;100343.09;;;11.46;87.72
55517;BME280;41724;51.176;-0.708;2023-11-19T05:26:19;100347.06;;;10.75;89.09
55517;BME280;41724;51.176;-0.708;2023-11-19T05:28:47;100350.44;;;10.64;90.61
55517;BME280;41724;51.176;-0.708;2023-11-19T05:31:14;100356.14;;;10.90;89.92
55517;BME280;41724;51.176;-0.708;2023-11-19T05:33:41;100342.71;;;10.74;90.04
55517;BME280;41724;51.176;-0.708;2023-11-19T05:36:11;100345.76;;;10.84;90.05
55517;BME280;41724;51.176;-0.708;2023-11-19T05:38:40;100356.08;;;10.68;90.96
55517;BME280;41724;51.176;-0.708;2023-11-19T05:41:08;100340.71;;;10.66;91.80
55517;BME280;41724;51.176;-0.708;2023-11-19T05:43:34;100340.87;;;10.12;91.57
55517;BME280;41724;51.176;-0.708;2023-11-19T05:46:01;100333.58;;;10.68;89.05
55517;BME280;41724;51.176;-0.708;2023-11-19T05:48:29;100327.00;;;11.26;87.41
55517;BME280;41724;51.176;-0.708;2023-11-19T05:50:56;100319.75;;;11.69;84.99
55517;BME280;41724;51.176;-0.708;2023-11-19T05:53:23;100320.26;;;11.74;83.57
55517;BME280;41724;51.176;-0.708;2023-11-19T05:55:50;100321.82;;;11.73;83.42
55517;BME280;41724;51.176;-0.708;2023-11-19T05:58:17;100337.92;;;10.57;88.17
55517;BME280;41724;51.176;-0.708;2023-11-19T06:00:47;100344.64;;;10.41;88.76
55517;BME280;41724;51.176;-0.708;2023-11-19T06:03:14;100345.45;;;11.20;86.57
55517;BME280;41724;51.176;-0.708;2023-11-19T06:05:41;100349.62;;;11.93;82.33
55517;BME280;41724;51.176;-0.708;2023-11-19T06:08:08;100359.54;;;11.09;85.57
55517;BME280;41724;51.176;-0.708;2023-11-19T06:10:34;100354.65;;;11.05;86.83
55517;BME280;41724;51.176;-0.708;2023-11-19T06:13:02;100347.84;;;11.01;85.83
55517;BME280;41724;51.176;-0.708;2023-11-19T06:15:29;100351.37;;;11.35;84.91
55517;BME280;41724;51.176;-0.708;2023-11-19T06:17:57;100344.45;;;12.01;82.15
55517;BME280;41724;51.176;-0.708;2023-11-19T06:20:23;100346.15;;;11.17;84.89
55517;BME280;41724;51.176;-0.708;2023-11-19T06:22:51;100350.03;;;11.35;84.81
55517;BME280;41724;51.176;-0.708;2023-11-19T06:25:18;100339.18;;;11.93;82.49
55517;BME280;41724;51.176;-0.708;2023-11-19T06:27:46;100347.37;;;11.80;83.52
55517;BME280;41724;51.176;-0.708;2023-11-19T06:30:13;100342.41;;;11.46;82.72
55517;BME280;41724;51.176;-0.708;2023-11-19T06:32:40;100346.80;;;11.30;83.68
55517;BME280;41724;51.176;-0.708;2023-11-19T06:35:08;100345.55;;;11.09;85.86
55517;BME280;41724;51.176;-0.708;2023-11-19T06:37:37;100343.77;;;10.72;87.28
55517;BME280;41724;51.176;-0.708;2023-11-19T06:40:08;100349.34;;;10.87;86.74
55517;BME280;41724;51.176;-0.708;2023-11-19T06:42:35;100348.72;;;10.06;91.67
55517;BME280;41724;51.176;-0.708;2023-11-19T06:45:03;100357.88;;;10.33;90.69
55517;BME280;41724;51.176;-0.708;2023-11-19T06:47:30;100352.11;;;10.40;89.18
55517;BME280;41724;51.176;-0.708;2023-11-19T06:49:58;100354.52;;;10.41;89.66
55517;BME280;41724;51.176;-0.708;2023-11-19T06:52:26;100347.09;;;10.11;89.26
55517;BME280;41724;51.176;-0.708;2023-11-19T06:54:53;100344.07;;;9.73;90.69
55517;BME280;41724;51.176;-0.708;2023-11-19T06:57:20;100340.35;;;9.89;90.56
55517;BME280;41724;51.176;-0.708;2023-11-19T06:59:47;100341.08;;;9.85;90.62
55517;BME280;41724;51.176;-0.708;2023-11-19T07:02:14;100352.17;;;9.97;90.57
55517;BME280;41724;51.176;-0.708;2023-11-19T07:04:41;100335.95;;;10.05;88.05
55517;BME280;41724;51.176;-0.708;2023-11-19T07:07:08;100342.20;;;10.00;88.42
55517;BME280;41724;51.176;-0.708;2023-11-19T07:09:35;100345.91;;;9.61;91.69
55517;BME280;41724;51.176;-0.708;2023-11-19T07:12:03;100348.19;;;9.85;90.44
55517;BME280;41724;51.176;-0.708;2023-11-19T07:14:30;100351.39;;;9.72;90.31
55517;BME280;41724;51.176;-0.708;2023-11-19T07:16:57;100346.25;;;9.74;89.81
55517;BME280;41724;51.176;-0.708;2023-11-19T07:19:24;100339.53;;;9.64;91.12
55517;BME280;41724;51.176;-0.708;2023-11-19T07:21:51;100336.01;;;9.87;88.87
55517;BME280;41724;51.176;-0.708;2023-11-19T07:24:18;100340.65;;;10.15;87.77
55517;BME280;41724;51.176;-0.708;2023-11-19T07:26:47;100332.23;;;9.64;90.16
55517;BME280;41724;51.176;-0.708;2023-11-19T07:29:13;100335.55;;;9.88;89.04
55517;BME280;41724;51.176;-0.708;2023-11-19T07:31:40;100339.63;;;10.37;88.22
55517;BME280;41724;51.176;-0.708;2023-11-19T07:34:07;100337.93;;;9.56;90.99
55517;BME280;41724;51.176;-0.708;2023-11-19T07:36:34;100345.13;;;10.08;89.44
55517;BME280;41724;51.176;-0.708;2023-11-19T07:39:03;100340.39;;;9.50;91.19
55517;BME280;41724;51.176;-0.708;2023-11-19T07:41:30;100351.10;;;10.60;88.30
55517;BME280;41724;51.176;-0.708;2023-11-19T07:43:57;100351.25;;;10.12;90.91
55517;BME280;41724;51.176;-0.708;2023-11-19T07:46:24;100359.00;;;9.88;92.80
55517;BME280;41724;51.176;-0.708;2023-11-19T07:48:52;100363.76;;;10.43;91.35
55517;BME280;41724;51.176;-0.708;2023-11-19T07:51:19;100369.38;;;10.54;90.84
55517;BME280;41724;51.176;-0.708;2023-11-19T07:53:47;100372.63;;;10.74;88.82
55517;BME280;41724;51.176;-0.708;2023-11-19T07:56:14;100384.29;;;10.16;93.19
55517;BME280;41724;51.176;-0.708;2023-11-19T07:58:41;100368.07;;;10.68;93.26
55517;BME280;41724;51.176;-0.708;2023-11-19T08:01:08;100365.66;;;11.22;88.52
55517;BME280;41724;51.176;-0.708;2023-11-19T08:03:35;100362.12;;;11.86;86.26
55517;BME280;41724;51.176;-0.708;2023-11-19T08:06:04;100361.49;;;11.75;85.61
55517;BME280;41724;51.176;-0.708;2023-11-19T08:08:31;100358.05;;;11.16;87.81
55517;BME280;41724;51.176;-0.708;2023-11-19T08:10:58;100362.03;;;11.39;87.91
55517;BME280;41724;51.176;-0.708;2023-11-19T08:13:25;100359.07;;;10.96;88.75
55517;BME280;41724;51.176;-0.708;2023-11-19T08:15:52;100370.39;;;10.18;92.08
55517;BME280;41724;51.176;-0.708;2023-11-19T08:18:19;100366.40;;;11.04;88.28
55517;BME280;41724;51.176;-0.708;2023-11-19T08:20:46;100364.88;;;11.06;87.36
55517;BME280;41724;51.176;-0.708;2023-11-19T08:23:13;100365.70;;;10.93;87.66
55517;BME280;41724;51.176;-0.708;2023-11-19T08:25:40;100361.84;;;11.13;86.72
55517;BME280;41724;51.176;-0.708;2023-11-19T08:28:07;100356.96;;;11.59;83.07
55517;BME280;41724;51.176;-0.708;2023-11-19T08:30:34;100363.21;;;11.63;83.39
55517;BME280;41724;51.176;-0.708;2023-11-19T08:33:01;100364.44;;;11.27;83.35
55517;BME280;41724;51.176;-0.708;2023-11-19T08:35:28;100361.74;;;11.31;85.13
55517;BME280;41724;51.176;-0.708;2023-11-19T08:37:54;100358.21;;;10.55;87.51
55517;BME280;41724;51.176;-0.708;2023-11-19T08:40:22;100356.30;;;10.92;86.35
55517;BME280;41724;51.176;-0.708;2023-11-19T08:42:49;100362.86;;;11.85;84.24
55517;BME280;41724;51.176;-0.708;2023-11-19T08:45:17;100356.83;;;11.85;82.11
55517;BME280;41724;51.176;-0.708;2023-11-19T08:47:44;100351.28;;;11.65;84.62
55517;BME280;41724;51.176;-0.708;2023-11-19T08:50:11;100348.03;;;11.65;83.77
55517;BME280;41724;51.176;-0.708;2023-11-19T08:52:38;100352.31;;;10.92;86.09
55517;BME280;41724;51.176;-0.708;2023-11-19T08:55:06;100363.25;;;11.02;85.84
55517;BME280;41724;51.176;-0.708;2023-11-19T08:57:33;100350.32;;;10.36;90.04
55517;BME280;41724;51.176;-0.708;2023-11-19T09:00:00;100345.95;;;11.12;88.29
55517;BME280;41724;51.176;-0.708;2023-11-19T09:02:27;100354.00;;;10.05;92.95
55517;BME280;41724;51.176;-0.708;2023-11-19T09:04:54;100357.58;;;10.52;91.93
55517;BME280;41724;51.176;-0.708;2023-11-19T09:07:21;100340.33;;;10.61;90.79
55517;BME280;41724;51.176;-0.708;2023-11-19T09:09:49;100340.09;;;10.33;92.17
55517;BME280;41724;51.176;-0.708;2023-11-19T09:12:16;100328.66;;;10.85;88.39
55517;BME280;41724;51.176;-0.708;2023-11-19T09:14:42;100344.79;;;11.19;88.61
55517;BME280;41724;51.176;-0.708;2023-11-19T09:17:09;100332.40;;;11.23;87.51
55517;BME280;41724;51.176;-0.708;2023-11-19T09:19:37;100333.32;;;10.99;87.29
55517;BME280;41724;51.176;-0.708;2023-11-19T09:22:04;100334.89;;;10.77;88.05
55517;BME280;41724;51.176;-0.708;2023-11-19T09:24:31;100347.17;;;10.85;86.88
55517;BME280;41724;51.176;-0.708;2023-11-19T09:26:58;100346.02;;;10.70;85.46
55517;BME280;41724;51.176;-0.708;2023-11-19T09:29:24;100348.65;;;11.04;85.75
55517;BME280;41724;51.176;-0.708;2023-11-19T09:31:51;100345.88;;;10.65;85.68
55517;BME280;41724;51.176;-0.708;2023-11-19T09:34:18;100325.89;;;11.05;83.97
55517;BME280;41724;51.176;-0.708;2023-11-19T09:36:46;100329.63;;;11.24;82.42
55517;BME280;41724;51.176;-0.708;2023-11-19T09:39:13;100323.03;;;10.56;84.39
55517;BME280;41724;51.176;-0.708;2023-11-19T09:41:39;100332.18;;;10.42;83.67
55517;BME280;41724;51.176;-0.708;2023-11-19T09:44:07;100328.98;;;10.22;84.05
55517;BME280;41724;51.176;-0.708;2023-11-19T09:46:35;100333.92;;;10.85;81.38
55517;BME280;41724;51.176;-0.708;2023-11-19T09:49:04;100320.04;;;11.31;80.57
55517;BME280;41724;51.176;-0.708;2023-11-19T09:51:32;100327.71;;;11.02;80.48
55517;BME280;41724;51.176;-0.708;2023-11-19T09:53:59;100330.84;;;10.37;80.78
55517;BME280;41724;51.176;-0.708;2023-11-19T09:56:27;100315.16;;;11.12;79.61
55517;BME280;41724;51.176;-0.708;2023-11-19T09:58:56;100316.05;;;11.25;80.26
55517;BME280;41724;51.176;-0.708;2023-11-19T10:01:23;100320.58;;;11.08;80.81
55517;BME280;41724;51.176;-0.708;2023-11-19T10:03:55;100315.13;;;11.91;78.15
55517;BME280;41724;51.176;-0.708;2023-11-19T10:06:23;100307.06;;;10.85;81.52
55517;BME280;41724;51.176;-0.708;2023-11-19T10:08:51;100303.43;;;10.61;82.46
55517;BME280;41724;51.176;-0.708;2023-11-19T10:11:18;100323.48;;;10.55;86.91
55517;BME280;41724;51.176;-0.708;2023-11-19T10:13:45;100320.16;;;10.51;87.98
55517;BME280;41724;51.176;-0.708;2023-11-19T10:16:12;100338.78;;;10.49;90.38
55517;BME280;41724;51.176;-0.708;2023-11-19T10:18:44;100330.72;;;10.96;87.30
55517;BME280;41724;51.176;-0.708;2023-11-19T10:21:12;100318.09;;;11.32;86.96
55517;BME280;41724;51.176;-0.708;2023-11-19T10:23:56;100318.38;;;11.75;85.10
55517;BME280;41724;51.176;-0.708;2023-11-19T10:26:23;100318.27;;;11.37;84.91
55517;BME280;41724;51.176;-0.708;2023-11-19T10:28:50;100317.82;;;10.90;87.77
55517;BME280;41724;51.176;-0.708;2023-11-19T10:31:18;100317.96;;;11.35;86.47
55517;BME280;41724;51.176;-0.708;2023-11-19T10:33:46;100317.47;;;11.13;86.35
55517;BME280;41724;51.176;-0.708;2023-11-19T10:36:13;100325.75;;;11.47;86.53
55517;BME280;41724;51.176;-0.708;2023-11-19T10:38:52;100330.19;;;11.29;85.69
55517;BME280;41724;51.176;-0.708;2023-11-19T10:41:27;100325.04;;;11.93;82.24
55517;BME280;41724;51.176;-0.708;2023-11-19T10:43:55;100325.82;;;11.92;81.05
55517;BME280;41724;51.176;-0.708;2023-11-19T10:46:21;100335.16;;;12.27;79.64
55517;BME280;41724;51.176;-0.708;2023-11-19T10:48:49;100328.97;;;13.17;74.64
55517;BME280;41724;51.176;-0.708;2023-11-19T10:51:19;100330.06;;;12.39;76.57
55517;BME280;41724;51.176;-0.708;2023-11-19T10:53:46;100340.86;;;11.67;79.88
55517;BME280;41724;51.176;-0.708;2023-11-19T10:56:17;100344.11;;;12.24;77.93
55517;BME280;41724;51.176;-0.708;2023-11-19T10:58:48;100338.59;;;12.62;78.13
55517;BME280;41724;51.176;-0.708;2023-11-19T11:01:19;100343.52;;;11.78;80.71
55517;BME280;41724;51.176;-0.708;2023-11-19T11:03:47;100346.47;;;11.54;80.19
55517;BME280;41724;51.176;-0.708;2023-11-19T11:06:14;100333.80;;;11.79;82.40
55517;BME280;41724;51.176;-0.708;2023-11-19T11:08:42;100330.40;;;11.93;80.81
55517;BME280;41724;51.176;-0.708;2023-11-19T11:11:12;100323.39;;;12.58;78.55
55517;BME280;41724;51.176;-0.708;2023-11-19T11:13:44;100332.43;;;11.53;81.39
55517;BME280;41724;51.176;-0.708;2023-11-19T11:16:11;100335.01;;;11.78;81.68
55517;BME280;41724;51.176;-0.708;2023-11-19T11:18:39;100334.67;;;11.35;84.74
55517;BME280;41724;51.176;-0.708;2023-11-19T11:21:08;100323.75;;;11.79;83.28
55517;BME280;41724;51.176;-0.708;2023-11-19T11:24:04;100320.65;;;11.56;83.10
55517;BME280;41724;51.176;-0.708;2023-11-19T11:26:53;100327.36;;;11.42;84.67
55517;BME280;41724;51.176;-0.708;2023-11-19T11:29:31;100336.26;;;11.33;85.00
55517;BME280;41724;51.176;-0.708;2023-11-19T11:32:12;100321.36;;;11.04;86.97
55517;BME280;41724;51.176;-0.708;2023-11-19T11:34:58;100329.98;;;11.48;85.64
55517;BME280;41724;51.176;-0.708;2023-11-19T11:37:33;100327.65;;;11.76;82.99
55517;BME280;41724;51.176;-0.708;2023-11-19T11:40:02;100311.16;;;11.06;87.97
55517;BME280;41724;51.176;-0.708;2023-11-19T11:42:32;100326.30;;;10.81;87.48
55517;BME280;41724;51.176;-0.708;2023-11-19T11:45:00;100302.57;;;11.87;83.74
55517;BME280;41724;51.176;-0.708;2023-11-19T11:48:21;100312.17;;;11.08;86.41
55517;BME280;41724;51.176;-0.708;2023-11-19T11:50:52;100295.28;;;11.76;83.78
55517;BME280;41724;51.176;-0.708;2023-11-19T11:53:21;100305.99;;;12.14;83.60
55517;BME280;41724;51.176;-0.708;2023-11-19T11:55:56;100321.32;;;11.75;84.72
55517;BME280;41724;51.176;-0.708;2023-11-19T11:58:29;100313.52;;;11.40;89.16
55517;BME280;41724;51.176;-0.708;2023-11-19T12:00:57;100321.25;;;11.33;90.93
55517;BME280;41724;51.176;-0.708;2023-11-19T12:03:28;100307.25;;;11.17;91.78
55517;BME280;41724;51.176;-0.708;2023-11-19T12:05:56;100292.90;;;11.23;91.21
55517;BME280;41724;51.176;-0.708;2023-11-19T12:08:27;100296.08;;;11.77;88.64
55517;BME280;41724;51.176;-0.708;2023-11-19T12:10:56;100294.27;;;11.65;89.61
55517;BME280;41724;51.176;-0.708;2023-11-19T12:13:26;100294.55;;;11.53;90.56
55517;BME280;41724;51.176;-0.708;2023-11-19T12:16:12;100303.17;;;11.59;90.01
55517;BME280;41724;51.176;-0.708;2023-11-19T12:18:40;100282.05;;;12.14;85.07
55517;BME280;41724;51.176;-0.708;2023-11-19T12:21:07;100279.99;;;12.37;86.63
55517;BME280;41724;51.176;-0.708;2023-11-19T12:23:34;100291.45;;;12.88;83.05
55517;BME280;41724;51.176;-0.708;2023-11-19T12:26:01;100282.55;;;12.28;83.91
55517;BME280;41724;51.176;-0.708;2023-11-19T12:28:28;100278.66;;;12.50;83.54
55517;BME280;41724;51.176;-0.708;2023-11-19T12:31:07;100283.50;;;12.59;83.00
55517;BME280;41724;51.176;-0.708;2023-11-19T12:33:36;100288.41;;;12.96;80.15
55517;BME280;41724;51.176;-0.708;2023-11-19T12:36:03;100281.89;;;12.04;84.14
55517;BME280;41724;51.176;-0.708;2023-11-19T12:38:30;100283.89;;;11.88;84.03
55517;BME280;41724;51.176;-0.708;2023-11-19T12:41:05;100283.53;;;12.26;82.57
55517;BME280;41724;51.176;-0.708;2023-11-19T12:43:33;100272.74;;;12.64;81.16
55517;BME280;41724;51.176;-0.708;2023-11-19T12:46:00;100268.64;;;12.57;80.40